Letzte erfasste Runde: Stefan Schreiner - 34:36.918 - Porsche 917/30 Spyder - simtraxx_targa_florio_trophy - 16.08.2022 02:04:00
Platz Datum Fahrer Zeit Diff S1 S2 S3 Fahrzeug Session KG Reifen Runden
- - Theoretische Bestzeit 2:51.879 - 1:03.047 1:10.195 38.637 - - - - -
1 01.07.2022 Leon Harhoff 2:52.002 - 1:03.047 1:10.318 38.637 fiat_805 Race 0 VV 21
2 01.07.2022 Andreas Roggel 2:52.267 0.265 1:03.322 1:10.195 38.750 fiat_805 Race 0 VV 21
3 01.07.2022 Valentin Knechtel 2:52.355 0.353 1:03.132 1:10.559 38.664 fiat_805 Race 0 VV 21
4 01.07.2022 Jakob Breurather 2:53.670 1.668 1:03.455 1:10.723 39.492 sunbeam_2l Race 0 VV 21
5 01.07.2022 Bernd Steinhauser 2:53.888 1.886 1:03.575 1:11.002 39.311 sunbeam_2l Race 0 VV 21
6 01.07.2022 Tobias Kuppe 2:54.512 2.510 1:03.956 1:11.020 39.536 sunbeam_2l Race 0 VV 20
7 01.07.2022 Marcel Mättig 2:54.846 2.844 1:04.330 1:11.627 38.889 fiat_805 Race 0 VV 21
8 01.07.2022 Ronny Fiebig 2:55.033 3.031 1:04.013 1:11.298 39.722 sunbeam_2l Race 0 VV 21
9 01.07.2022 Reinhold Gaertner 2:56.447 4.445 1:04.218 1:12.044 40.185 sunbeam_2l Race 0 VV 20
10 01.07.2022 Marcus Radlach 2:57.797 5.795 1:04.703 1:12.171 40.923 bugatti_type_32 Race 0 VV 20
11 01.07.2022 Benjamin Froegel 2:57.921 5.919 1:05.024 1:12.172 40.725 voisin_c6_laboratoire Race 0 VV 21
12 01.07.2022 Carlo Pedersoli 2:58.073 6.071 1:05.285 1:12.198 40.590 voisin_c6_laboratoire Race 0 VV 21
13 01.07.2022 Frank Lehmann 2:58.651 6.649 1:05.516 1:12.464 40.671 voisin_c6_laboratoire Race 0 VV 21
14 01.07.2022 Marc Bechmann 2:58.933 6.931 1:05.983 1:12.040 40.910 voisin_c6_laboratoire Race 0 VV 20
15 01.07.2022 Sebastian Bach 2:59.183 7.181 1:05.613 1:12.648 40.922 bugatti_type_32 Race 0 VV 18
16 01.07.2022 Marco Dohmen 2:59.606 7.604 1:06.188 1:12.748 40.670 voisin_c6_laboratoire Race 0 VV 20
17 01.07.2022 Sebastian Gerhart 3:01.459 9.457 1:06.493 1:13.773 41.193 voisin_c6_laboratoire Race 0 VV 20
18 01.07.2022 Albert Gorocz 3:01.539 9.537 1:06.537 1:13.795 41.207 bugatti_type_32 Race 0 VV 7
19 01.07.2022 Tobias Kuhn 3:01.927 9.925 1:06.308 1:13.881 41.738 bugatti_type_32 Race 0 VV 19
20 01.07.2022 Marvin Warthöfer 3:02.134 10.132 1:06.966 1:13.863 41.305 voisin_c6_laboratoire Race 0 VV 20
21 01.07.2022 Markus Knecht 3:02.275 10.273 1:06.337 1:14.493 41.445 bugatti_type_32 Race 0 VV 16
22 01.07.2022 Tim Trampel 3:03.085 11.083 1:07.030 1:14.070 41.985 bugatti_type_32 Race 0 VV 14
23 01.07.2022 Stefan van Holt 3:05.872 13.870 1:09.245 1:14.215 42.412 bugatti_type_32 Race 0 VV 19

SERVER

0/31
virtualracing.org#4 GTC Training Standard
TrainingDaytona International Speedway - Road Course
0/31
virtualracing.org#5 GTC Training A
TrainingDaytona International Speedway - Road Course
0/24
virtualracing.org#30 ALT Training
TrainingFuji Speedway - Grand Prix Circuit 1968
0/32
virtualracing.org#33 GTC Starttest
TrainingDaytona International Speedway - Road Course